KLMT/LMT METAR and TAF weather

Enter ICAO airport designator
Station Type Date Time Source
KLMT METAR 2019/08/25 13:53 UTC NOAA

KLMT 251353Z AUTO 13003KT 10SM CLR 07/05 A3015 RMK AO2 SLP173 T00670050


Station Type Date Time Source
KLMT Decoded METAR 2019/08/25 13:53 UTC NOAA

Station name not available
Aug 25, 2019 - 09:53 AM EDT / 2019.08.25 1353 UTC
Wind: from the SE (130 degrees) at 3 MPH (3 KT):0
Visibility: 10 mile(s):0
Sky conditions: clear
Temperature: 44.1 F (6.7 C)
Dew Point: 41.0 F (5.0 C)
Relative Humidity: 88%
Pressure (altimeter): 30.15 in. Hg (1020 hPa)
ob: KLMT 251353Z AUTO 13003KT 10SM CLR 07/05 A3015 RMK AO2 SLP173 T00670050
cycle: 14

Station Type Date Time Source
KLMT TAF 2019/08/25 12:24 UTC NOAA

TAF KLMT 251120Z 2512/2612 VRB04KT P6SM SKC
FM252100 30008G15KT P6SM SKC
FM260000 31013G20KT P6SM SKC
FM260300 34008KT P6SM SKC
FM260600 VRB03KT P6SM SKC

Example: see airport list